• Join FlightAware (Why Join?)
  • Login
  • US Flag 
05:39AM EDT


 

Airport Tracker/Info


-or-


 

Live Flight TrackerFlight Track Log ✈ ASQ4633 ✈ 25-Apr-2013 ✈ KEWR - KBTV

Flight Track Log - Related Links

Times and Time Zones

All times are in EDT time to prevent confusion due to time zone crossing. See the ASQ4633 flight status page for this flight to view local times or setup timezone preferences in your user account.

Time Position Orientation Groundspeed Altitude Reporting Facility
EDT Latitude Longitude Course Direction KTS MPH feet Rate Location/Type
04:45PM 40.6333 -74.2000 27° Northeast 192 221 2,600  Level New York TRACON
04:46PM 40.6500 -74.2500 294° West 234 269 5,000 1,680 Climbing New York TRACON
04:47PM 40.7000 -74.2000 37° Northeast 262 302 6,000 1,200 Climbing New York TRACON
04:48PM 40.9877 -73.8289 37° Northeast  Level FlightAware Approximate
04:48PM 40.7333 -74.1167 62° Northeast 266 306 7,500  Level New York TRACON
04:49PM 41.0669 -73.7415 40° Northeast  Level FlightAware Approximate
04:49PM 40.7953 -73.9944 56° Northeast 285 328 10,000  Level Boston Center
04:50PM 41.1475 -73.6572 27° Northeast  Level FlightAware Approximate
04:50PM 40.8447 -73.8886 58° Northeast 307 353 11,600  Level Boston Center
04:51PM 40.9186 -73.8053 40° Northeast 331 381 13,100 1,500 Climbing Boston Center
04:52PM 41.0008 -73.7356 33° Northeast 337 388 14,600 1,500 Climbing Boston Center
04:53PM 41.0975 -73.6519 33° Northeast 362 417 16,200 1,260 Climbing Boston Center
04:54PM 41.1692 -73.5872 34° Northeast 374 430 17,200 840 Climbing Boston Center
04:55PM 41.2533 -73.5114 34° Northeast 397 457 17,900 960 Climbing Boston Center
04:56PM 41.3750 -73.4083 32° Northeast 411 473 19,200 1,140 Climbing Boston Center
04:57PM 41.4758 -73.3183 34° Northeast 429 494 20,200 1,020 Climbing Boston Center
04:58PM 41.5642 -73.2031 44° Northeast 438 504 21,300 1,080 Climbing Boston Center
04:59PM 41.6731 -73.1264 28° Northeast 429 494 22,400 1,020 Climbing Boston Center
05:00PM 41.7939 -73.1361 357° North 408 470 23,400 960 Climbing Boston Center
05:01PM 41.9147 -73.1597 352° North 414 476 24,400 780 Climbing Boston Center
05:02PM 42.0353 -73.1781 354° North 426 490 25,000 300 Climbing Boston Center
05:03PM 42.1747 -73.2019 353° North 442 509 25,000  Level Boston Center
05:04PM 42.3017 -73.2542 343° North 447 514 25,000  Level Boston Center
05:05PM 42.4283 -73.2953 347° North 452 520 25,000  Level Boston Center
05:06PM 42.5594 -73.3167 353° North 458 527 25,000  Level Boston Center
05:07PM 42.6969 -73.3328 355° North 477 549 25,000  Level Boston Center
05:08PM 42.8075 -73.3400 357° North 483 556 25,000  Level Boston Center
05:09PM 42.9719 -73.3453 359° North 488 562 25,000  Level Boston Center
05:10PM 43.1075 -73.3331 North 488 562 25,000  Level Boston Center
05:11PM 43.2472 -73.3181 North 488 562 25,000  Level Boston Center
05:12PM 43.3831 -73.3000 North 494 568 25,000 -660 Level Boston Center
05:13PM 43.5017 -73.2872 North 494 568 23,700 -1,560 Descending Boston Center
05:14PM 43.6269 -73.2719 North 472 543 21,900 -2,340 Descending Boston Center
05:15PM 43.7625 -73.2564 North 447 514 19,100 -2,460 Descending Boston Center
05:16PM 43.8731 -73.2464 North 416 479 17,000 -2,100 Descending Boston Center
05:17PM 43.9711 -73.2333 North 369 425 14,900 -2,160 Descending Boston Center
05:18PM 44.0608 -73.2231 North 333 383 12,700 -2,100 Descending Boston Center
05:19PM 44.1419 -73.2269 358° North 302 348 10,700 -1,860 Descending Boston Center
05:20PM 44.2169 -73.2367 355° North 279 321 9,000 -1,680 Descending Boston Center
05:21PM 44.2856 -73.2636 344° North 260 299 7,400 -1,620 Descending Boston Center
05:22PM 44.3500 -73.2850 347° North 242 278 5,800 -1,620 Descending Boston Center
05:23PM 44.4103 -73.3031 348° North 232 267 4,200 -1,620 Descending Boston Center
05:24PM 44.4706 -73.3128 353° North 221 254 2,600 -1,140 Descending Boston Center
05:25PM 44.5147 -73.2639 38° Northeast 205 236 2,000 -600 Descending Boston Center